createdAt,value
2023-01-30T00:01:01.328Z,47.17
2023-01-30T00:03:28.759Z,45.13
2023-01-30T00:06:00.755Z,45.92
2023-01-30T00:08:28.318Z,48.40
2023-01-30T00:10:55.718Z,44.83
2023-01-30T00:13:23.119Z,46.25
2023-01-30T00:15:50.399Z,45.15
2023-01-30T00:18:17.726Z,47.38
2023-01-30T00:20:45.078Z,46.70
2023-01-30T00:23:12.413Z,46.47
2023-01-30T00:25:39.984Z,44.70
2023-01-30T00:28:07.410Z,44.33
2023-01-30T00:30:36.047Z,44.10
2023-01-30T00:33:03.504Z,44.67
2023-01-30T00:35:30.936Z,40.95
2023-01-30T00:37:59.442Z,47.30
2023-01-30T00:40:28.807Z,43.85
2023-01-30T00:43:14.997Z,47.25
2023-01-30T00:46:04.056Z,46.03
2023-01-30T00:48:32.352Z,44.58
2023-01-30T00:50:59.654Z,44.78
2023-01-30T00:53:28.214Z,42.70
2023-01-30T00:55:56.286Z,43.55
2023-01-30T00:58:24.390Z,42.70
2023-01-30T01:00:52.342Z,40.70
2023-01-30T01:03:20.445Z,43.78
2023-01-30T01:05:48.517Z,55.97
2023-01-30T01:08:16.613Z,41.83
2023-01-30T01:10:44.044Z,47.55
2023-01-30T01:13:11.387Z,44.10
2023-01-30T01:15:38.727Z,43.20
2023-01-30T01:18:06.388Z,44.13
2023-01-30T01:20:33.973Z,46.72
2023-01-30T01:23:01.268Z,45.75
2023-01-30T01:25:28.829Z,47.30
2023-01-30T01:27:56.200Z,43.25
2023-01-30T01:30:23.691Z,45.22
2023-01-30T01:32:51.093Z,46.85
2023-01-30T01:35:20.199Z,48.83
2023-01-30T01:37:47.823Z,48.50
2023-01-30T01:40:39.038Z,48.97
2023-01-30T01:43:19.874Z,43.67
2023-01-30T01:45:51.743Z,46.03
2023-01-30T01:48:26.996Z,51.58
2023-01-30T01:51:01.831Z,47.40
2023-01-30T01:53:35.295Z,46.70
2023-01-30T01:56:05.531Z,49.10
2023-01-30T01:59:06.159Z,41.90
2023-01-30T02:01:33.998Z,46.25
2023-01-30T02:04:05.766Z,46.50
2023-01-30T02:09:08.663Z,46.88
2023-01-30T02:11:56.103Z,50.28
2023-01-30T02:14:23.794Z,50.58
2023-01-30T02:16:51.526Z,51.40
2023-01-30T02:19:45.208Z,49.13
2023-01-30T02:22:18.805Z,46.33
2023-01-30T02:25:08.148Z,44.97
2023-01-30T02:28:10.483Z,48.22
2023-01-30T02:31:02.622Z,45.17
2023-01-30T02:33:43.243Z,43.08
2023-01-30T02:36:15.623Z,50.72
2023-01-30T02:38:55.923Z,44.13
2023-01-30T02:41:42.142Z,45.38
2023-01-30T02:44:29.508Z,47.40
2023-01-30T02:46:59.084Z,47.40
2023-01-30T02:49:40.224Z,46.15
2023-01-30T02:52:11.895Z,43.65
2023-01-30T02:54:39.270Z,44.55
2023-01-30T02:57:25.633Z,46.33
2023-01-30T03:00:03.048Z,45.33
2023-01-30T03:02:31.629Z,47.63
2023-01-30T03:05:11.557Z,49.40
2023-01-30T03:07:47.965Z,45.72
2023-01-30T03:10:31.156Z,47.78
2023-01-30T03:13:14.873Z,44.38
2023-01-30T03:15:49.852Z,46.95
2023-01-30T03:18:19.656Z,50.35
2023-01-30T03:20:47.701Z,44.92
2023-01-30T03:23:33.874Z,44.58
2023-01-30T03:26:11.085Z,45.88
2023-01-30T03:28:38.671Z,41.35
2023-01-30T03:31:06.299Z,41.03
2023-01-30T03:33:33.639Z,44.42
2023-01-30T03:36:01.117Z,38.33
2023-01-30T03:38:28.438Z,38.67
2023-01-30T03:40:55.953Z,42.88
2023-01-30T03:43:23.351Z,37.80
2023-01-30T03:45:50.963Z,40.97
2023-01-30T03:48:18.406Z,39.92
2023-01-30T03:50:45.794Z,37.42
2023-01-30T03:53:13.135Z,40.05
2023-01-30T03:55:40.684Z,37.30
2023-01-30T03:58:08.045Z,34.85
2023-01-30T04:00:35.615Z,36.10
2023-01-30T04:03:03.537Z,33.08
2023-01-30T04:05:32.178Z,36.00
2023-01-30T04:08:04.457Z,35.97
2023-01-30T04:10:31.808Z,35.65
2023-01-30T04:12:59.126Z,37.55
2023-01-30T04:15:27.274Z,32.67
2023-01-30T04:18:13.306Z,32.58
2023-01-30T04:20:40.811Z,35.33
2023-01-30T04:23:08.380Z,37.88
2023-01-30T04:25:35.885Z,36.00
2023-01-30T04:28:07.952Z,34.63
2023-01-30T04:30:37.995Z,34.33
2023-01-30T04:33:25.850Z,37.40
2023-01-30T04:35:59.962Z,33.63
2023-01-30T04:38:30.438Z,37.22
2023-01-30T04:40:58.975Z,39.70
2023-01-30T04:43:29.894Z,35.73
2023-01-30T04:46:03.399Z,35.35
2023-01-30T04:48:31.026Z,35.13
2023-01-30T04:51:00.672Z,39.17
2023-01-30T04:53:28.746Z,35.42
2023-01-30T04:55:56.312Z,33.60
2023-01-30T04:58:23.830Z,36.13
2023-01-30T05:00:51.417Z,29.30
2023-01-30T05:03:18.922Z,35.20
2023-01-30T05:05:47.584Z,35.28
2023-01-30T05:08:17.448Z,36.88
2023-01-30T05:10:44.946Z,28.70
2023-01-30T05:13:12.398Z,28.42
2023-01-30T05:15:40.416Z,28.95
2023-01-30T05:18:07.989Z,27.23
2023-01-30T05:20:35.532Z,27.38
2023-01-30T05:23:02.958Z,30.35
2023-01-30T05:25:30.662Z,30.05
2023-01-30T05:27:58.081Z,28.55
2023-01-30T05:30:25.543Z,28.73
2023-01-30T05:32:53.092Z,29.70
2023-01-30T05:35:20.818Z,26.48
2023-01-30T05:37:52.388Z,27.15
2023-01-30T05:40:19.962Z,28.90
2023-01-30T05:42:47.393Z,23.25
2023-01-30T05:45:15.123Z,25.77
2023-01-30T05:47:42.660Z,23.38
2023-01-30T05:50:11.029Z,28.80
2023-01-30T05:52:38.545Z,25.45
2023-01-30T05:55:07.211Z,23.63
2023-01-30T05:57:34.789Z,23.70
2023-01-30T06:00:02.611Z,25.70
2023-01-30T06:02:40.337Z,26.48
2023-01-30T06:05:08.655Z,25.58
2023-01-30T06:07:36.261Z,26.90
2023-01-30T06:10:04.096Z,26.77
2023-01-30T06:12:31.730Z,24.20
2023-01-30T06:14:59.352Z,22.63
2023-01-30T06:17:29.056Z,22.25
2023-01-30T06:19:57.307Z,24.92
2023-01-30T06:22:24.757Z,28.30
2023-01-30T06:24:52.226Z,24.35
2023-01-30T06:27:19.681Z,26.77
2023-01-30T06:29:47.135Z,28.15
2023-01-30T06:32:15.081Z,33.85
2023-01-30T06:34:42.593Z,36.42
2023-01-30T06:37:09.990Z,28.80
2023-01-30T06:39:37.539Z,34.08
2023-01-30T06:42:05.637Z,27.60
2023-01-30T06:44:33.334Z,33.88
2023-01-30T06:47:00.791Z,29.35
2023-01-30T06:49:28.272Z,30.00
2023-01-30T06:51:55.719Z,30.70
2023-01-30T06:54:23.293Z,33.60
2023-01-30T06:56:50.942Z,30.35
2023-01-30T06:59:18.603Z,26.80
2023-01-30T07:01:46.104Z,31.48
2023-01-30T07:04:13.908Z,32.05
2023-01-30T07:06:41.506Z,33.60
2023-01-30T07:09:09.005Z,30.98
2023-01-30T07:11:36.387Z,31.77
2023-01-30T07:14:05.683Z,27.60
2023-01-30T07:16:33.753Z,31.98
2023-01-30T07:19:01.252Z,31.90
2023-01-30T07:21:29.034Z,32.05
2023-01-30T07:23:56.511Z,32.38
2023-01-30T07:26:25.030Z,34.15
2023-01-30T07:28:52.520Z,31.05
2023-01-30T07:31:20.039Z,34.33
2023-01-30T07:33:47.922Z,33.10
2023-01-30T07:36:15.345Z,31.17
2023-01-30T07:38:42.727Z,31.50
2023-01-30T07:41:10.151Z,29.45
2023-01-30T07:43:37.764Z,32.00
2023-01-30T07:46:05.319Z,27.67
2023-01-30T07:48:32.698Z,32.03
2023-01-30T07:51:00.259Z,29.65
2023-01-30T07:53:27.835Z,29.27
2023-01-30T07:55:55.232Z,28.13
2023-01-30T07:58:22.676Z,33.17
2023-01-30T08:00:50.133Z,29.20
2023-01-30T08:03:17.738Z,28.38
2023-01-30T08:05:48.346Z,31.45
2023-01-30T08:08:16.128Z,28.77
2023-01-30T08:10:43.732Z,38.28
2023-01-30T08:13:11.185Z,36.55
2023-01-30T08:15:38.489Z,35.75
2023-01-30T08:18:07.463Z,30.40
2023-01-30T08:20:35.009Z,35.47
2023-01-30T08:23:02.659Z,40.58
2023-01-30T08:25:30.766Z,47.63
2023-01-30T08:28:00.414Z,38.72
2023-01-30T08:30:30.383Z,37.47
2023-01-30T08:32:58.671Z,39.28
2023-01-30T08:35:26.211Z,37.33
2023-01-30T08:37:53.667Z,41.92
2023-01-30T08:40:21.417Z,45.97
2023-01-30T08:42:48.974Z,46.72
2023-01-30T08:45:16.429Z,41.55
2023-01-30T08:47:43.997Z,43.97
2023-01-30T08:50:11.638Z,43.92
2023-01-30T08:52:39.159Z,43.88
2023-01-30T08:55:06.898Z,47.97
2023-01-30T08:57:34.432Z,47.15
2023-01-30T09:00:03.835Z,39.25
2023-01-30T09:02:31.748Z,43.13
2023-01-30T09:04:59.185Z,46.20
2023-01-30T09:07:28.879Z,48.95
2023-01-30T09:09:56.364Z,51.88
2023-01-30T09:12:24.602Z,50.28
2023-01-30T09:14:53.909Z,41.22
2023-01-30T09:17:21.992Z,42.25
2023-01-30T09:19:49.511Z,39.00
2023-01-30T09:22:17.263Z,43.30
2023-01-30T09:24:44.973Z,39.55
2023-01-30T09:27:12.425Z,44.28
2023-01-30T09:29:40.097Z,42.65
2023-01-30T09:32:07.587Z,39.67
2023-01-30T09:34:34.960Z,40.22
2023-01-30T09:37:04.802Z,38.30
2023-01-30T09:39:32.596Z,40.90
2023-01-30T09:42:06.251Z,38.40
2023-01-30T09:45:00.143Z,36.20
2023-01-30T09:47:43.774Z,38.45
2023-01-30T09:50:47.081Z,35.20
2023-01-30T09:53:31.782Z,40.28
2023-01-30T09:55:59.603Z,44.42
2023-01-30T09:58:41.460Z,40.38
2023-01-30T10:01:20.727Z,38.45
2023-01-30T10:04:14.102Z,47.13
2023-01-30T10:06:57.441Z,44.67
2023-01-30T10:10:02.169Z,47.90
2023-01-30T10:12:41.742Z,44.22
2023-01-30T10:15:25.210Z,44.20
2023-01-30T10:18:13.861Z,43.85
2023-01-30T10:21:04.174Z,50.20
2023-01-30T10:24:00.833Z,50.70
2023-01-30T10:26:29.018Z,47.42
2023-01-30T10:29:07.551Z,48.63
2023-01-30T10:32:08.103Z,48.75
2023-01-30T10:34:40.289Z,44.30
2023-01-30T10:37:13.768Z,50.90
2023-01-30T10:40:02.779Z,49.03
2023-01-30T10:42:50.618Z,46.17
2023-01-30T10:45:44.649Z,55.97
2023-01-30T10:48:47.374Z,51.90
2023-01-30T10:51:44.405Z,48.42
2023-01-30T10:54:27.921Z,53.15
2023-01-30T10:57:19.194Z,58.55
2023-01-30T10:59:56.184Z,61.25
2023-01-30T11:02:32.502Z,61.05
2023-01-30T11:05:04.215Z,60.20
2023-01-30T11:07:33.663Z,58.55
2023-01-30T11:10:01.309Z,54.63
2023-01-30T11:12:28.671Z,55.35
2023-01-30T11:15:01.346Z,58.08
2023-01-30T11:17:32.741Z,53.67
2023-01-30T11:20:13.787Z,53.67
2023-01-30T11:23:06.564Z,50.53
2023-01-30T11:26:05.517Z,57.83
2023-01-30T11:28:43.936Z,52.08
2023-01-30T11:31:31.521Z,51.78
2023-01-30T11:34:12.914Z,55.75
2023-01-30T11:36:40.518Z,51.28
2023-01-30T11:39:21.103Z,51.70
2023-01-30T11:41:55.479Z,52.03
2023-01-30T11:44:42.553Z,54.80
2023-01-30T11:47:19.457Z,55.47
2023-01-30T11:50:11.028Z,50.97
2023-01-30T11:52:44.105Z,52.80
2023-01-30T11:55:15.708Z,55.20
2023-01-30T11:57:58.579Z,50.25
2023-01-30T12:00:39.876Z,54.85
2023-01-30T12:03:12.194Z,57.90
2023-01-30T12:05:42.719Z,52.20
2023-01-30T12:08:40.790Z,56.53
2023-01-30T12:11:31.427Z,56.22
2023-01-30T12:14:16.395Z,54.00
2023-01-30T12:16:53.960Z,52.53
2023-01-30T12:19:45.845Z,53.47
2023-01-30T12:22:23.178Z,53.60
2023-01-30T12:25:01.810Z,57.53
2023-01-30T12:27:52.455Z,55.75
2023-01-30T12:30:31.260Z,50.47
2023-01-30T12:33:03.888Z,55.85
2023-01-30T12:35:52.471Z,55.70
2023-01-30T12:38:30.811Z,48.30
2023-01-30T12:41:13.325Z,44.63
2023-01-30T12:44:05.340Z,44.35
2023-01-30T12:46:59.411Z,46.28
2023-01-30T12:49:51.552Z,44.75
2023-01-30T12:52:28.102Z,53.35
2023-01-30T12:57:49.108Z,51.10
2023-01-30T13:00:16.750Z,51.05
2023-01-30T13:03:09.264Z,55.88
2023-01-30T13:08:26.973Z,49.53
2023-01-30T13:11:21.859Z,55.63
2023-01-30T13:14:15.567Z,51.70
2023-01-30T13:17:01.562Z,54.10
2023-01-30T13:19:51.787Z,56.42
2023-01-30T13:22:41.109Z,52.70
2023-01-30T13:25:14.405Z,46.83
2023-01-30T13:27:47.391Z,47.63
2023-01-30T13:30:17.998Z,52.40
2023-01-30T13:32:49.556Z,48.53
2023-01-30T13:35:26.043Z,52.05
2023-01-30T13:37:54.638Z,51.50
2023-01-30T13:40:38.552Z,101.05
2023-01-30T13:43:10.054Z,47.15
2023-01-30T13:45:42.240Z,47.60
2023-01-30T13:51:36.658Z,54.38
2023-01-30T13:54:13.057Z,47.67
2023-01-30T13:56:51.171Z,42.25
2023-01-30T13:59:39.296Z,46.40
2023-01-30T14:02:07.285Z,42.50
2023-01-30T14:04:40.832Z,43.50
2023-01-30T14:07:30.937Z,55.90
2023-01-30T14:10:07.255Z,53.88
2023-01-30T14:12:42.083Z,56.63
2023-01-30T14:15:16.262Z,52.13
2023-01-30T14:18:20.924Z,50.95
2023-01-30T14:20:51.084Z,54.38
2023-01-30T14:23:24.431Z,53.22
2023-01-30T14:25:56.509Z,52.72
2023-01-30T14:28:23.917Z,54.63
2023-01-30T14:30:55.817Z,51.83
2023-01-30T14:33:23.172Z,55.15
2023-01-30T14:36:02.863Z,47.67
2023-01-30T14:38:34.963Z,52.78
2023-01-30T14:41:02.225Z,51.50
2023-01-30T14:43:42.096Z,45.28
2023-01-30T14:46:18.784Z,49.00
2023-01-30T14:49:00.918Z,52.05
2023-01-30T14:51:40.466Z,48.75
2023-01-30T14:54:16.928Z,46.25
2023-01-30T14:56:59.664Z,53.88
2023-01-30T14:59:31.413Z,53.83
2023-01-30T15:02:07.953Z,51.30
2023-01-30T15:04:47.558Z,49.75
2023-01-30T15:07:20.563Z,52.78
2023-01-30T15:10:01.191Z,52.47
2023-01-30T15:12:43.109Z,46.70
2023-01-30T15:15:29.341Z,50.83
2023-01-30T15:18:08.542Z,52.53
2023-01-30T15:20:43.277Z,54.28
2023-01-30T15:23:25.131Z,54.35
2023-01-30T15:26:18.645Z,60.65
2023-01-30T15:28:52.059Z,57.05
2023-01-30T15:31:22.518Z,60.42
2023-01-30T15:33:52.413Z,49.80
2023-01-30T15:36:29.165Z,53.15
2023-01-30T15:39:04.851Z,52.83
2023-01-30T15:41:40.601Z,52.95
2023-01-30T15:44:28.024Z,54.03
2023-01-30T15:47:38.726Z,50.88
2023-01-30T15:50:10.297Z,51.38
2023-01-30T15:52:49.307Z,53.38
2023-01-30T15:55:29.633Z,54.17
2023-01-30T15:58:04.254Z,51.55
2023-01-30T16:00:37.329Z,58.08
2023-01-30T16:03:11.019Z,53.08
2023-01-30T16:05:47.559Z,56.20
2023-01-30T16:08:29.705Z,55.28
2023-01-30T16:13:24.804Z,53.25
2023-01-30T16:16:19.099Z,52.55
2023-01-30T16:18:58.156Z,54.65
2023-01-30T16:21:31.406Z,58.20
2023-01-30T16:24:25.757Z,53.28
2023-01-30T16:27:00.847Z,59.63
2023-01-30T16:29:31.438Z,50.53
2023-01-30T16:31:59.544Z,63.72
2023-01-30T16:34:27.194Z,63.28
2023-01-30T16:36:55.252Z,63.05
2023-01-30T16:39:34.274Z,61.17
2023-01-30T16:42:05.121Z,62.72
2023-01-30T16:44:32.705Z,57.55
2023-01-30T16:47:00.053Z,55.88
2023-01-30T16:49:36.425Z,52.03
2023-01-30T16:52:18.099Z,57.42
2023-01-30T16:54:52.220Z,58.95
2023-01-30T16:57:28.680Z,56.83
2023-01-30T16:59:56.401Z,55.92
2023-01-30T17:02:42.438Z,54.78
2023-01-30T17:05:20.898Z,59.42
2023-01-30T17:07:49.935Z,63.35
2023-01-30T17:10:42.040Z,60.00
2023-01-30T17:13:36.139Z,55.47
2023-01-30T17:16:21.784Z,58.50
2023-01-30T17:18:54.897Z,60.78
2023-01-30T17:21:25.555Z,60.40
2023-01-30T17:24:02.792Z,56.42
2023-01-30T17:26:31.627Z,63.90
2023-01-30T17:28:59.733Z,60.17
2023-01-30T17:31:27.189Z,66.47
2023-01-30T17:33:54.650Z,65.32
2023-01-30T17:36:27.399Z,66.05
2023-01-30T17:39:14.059Z,65.30
2023-01-30T17:41:42.931Z,64.88
2023-01-30T17:44:11.371Z,62.95
2023-01-30T17:46:41.108Z,70.63
2023-01-30T17:49:14.572Z,60.42
2023-01-30T17:51:42.877Z,68.25
2023-01-30T17:54:11.485Z,63.15
2023-01-30T17:56:41.413Z,67.18
2023-01-30T17:59:20.195Z,67.70
2023-01-30T18:01:49.774Z,65.40
2023-01-30T18:04:19.212Z,73.18
2023-01-30T18:06:49.431Z,72.10
2023-01-30T18:09:19.200Z,71.97
2023-01-30T18:11:47.448Z,70.82
2023-01-30T18:14:15.969Z,67.85
2023-01-30T18:16:44.745Z,65.68
2023-01-30T18:19:15.121Z,70.38
2023-01-30T18:21:45.144Z,65.63
2023-01-30T18:24:13.728Z,68.75
2023-01-30T18:26:42.538Z,67.95
2023-01-30T18:29:10.308Z,69.43
2023-01-30T18:31:39.321Z,65.78
2023-01-30T18:34:07.989Z,68.38
2023-01-30T18:36:36.438Z,73.80
2023-01-30T18:39:04.928Z,63.60
2023-01-30T18:41:32.555Z,67.00
2023-01-30T18:44:02.201Z,74.68
2023-01-30T18:46:30.314Z,72.85
2023-01-30T18:48:57.809Z,73.90
2023-01-30T18:51:28.028Z,71.72
2023-01-30T18:53:55.736Z,73.65
2023-01-30T18:56:33.387Z,72.60
2023-01-30T18:59:04.142Z,73.55
2023-01-30T19:01:42.600Z,75.93
2023-01-30T19:04:11.638Z,71.47
2023-01-30T19:06:42.055Z,69.45
2023-01-30T19:09:14.327Z,72.68
2023-01-30T19:12:00.243Z,80.18
2023-01-30T19:14:27.594Z,69.03
2023-01-30T19:16:55.005Z,70.80
2023-01-30T19:19:22.453Z,71.75
2023-01-30T19:21:52.169Z,68.45
2023-01-30T19:24:19.734Z,66.88
2023-01-30T19:26:48.360Z,70.72
2023-01-30T19:29:16.521Z,76.63
2023-01-30T19:31:44.199Z,75.70
2023-01-30T19:34:11.850Z,73.00
2023-01-30T19:36:39.815Z,71.15
2023-01-30T19:39:07.878Z,66.95
2023-01-30T19:41:36.749Z,73.22
2023-01-30T19:44:06.776Z,72.10
2023-01-30T19:46:34.723Z,75.80
2023-01-30T19:49:03.469Z,68.75
2023-01-30T19:51:33.591Z,71.65
2023-01-30T19:54:07.140Z,72.47
2023-01-30T19:56:36.601Z,79.15
2023-01-30T19:59:04.090Z,69.85
2023-01-30T20:01:35.427Z,76.40
2023-01-30T20:04:03.487Z,74.22
2023-01-30T20:06:35.841Z,73.13
2023-01-30T20:09:06.182Z,67.90
2023-01-30T20:11:35.979Z,67.63
2023-01-30T20:14:05.362Z,80.10
2023-01-30T20:16:34.794Z,71.10
2023-01-30T20:19:07.154Z,69.72
2023-01-30T20:21:35.902Z,68.97
2023-01-30T20:24:03.942Z,69.75
2023-01-30T20:26:37.387Z,71.22
2023-01-30T20:29:05.849Z,75.57
2023-01-30T20:31:34.883Z,68.95
2023-01-30T20:34:04.200Z,65.88
2023-01-30T20:36:31.768Z,79.47
2023-01-30T20:39:06.444Z,68.18
2023-01-30T20:41:35.778Z,74.70
2023-01-30T20:44:04.035Z,69.43
2023-01-30T20:46:39.666Z,69.57
2023-01-30T20:49:12.838Z,63.70
2023-01-30T20:51:40.336Z,66.90
2023-01-30T20:54:09.452Z,69.28
2023-01-30T20:56:40.140Z,68.72
2023-01-30T20:59:07.792Z,66.70
2023-01-30T21:01:35.945Z,64.60
2023-01-30T21:04:09.803Z,70.18
2023-01-30T21:06:43.567Z,72.72
2023-01-30T21:09:17.744Z,70.88
2023-01-30T21:11:45.932Z,70.10
2023-01-30T21:14:14.655Z,70.45
2023-01-30T21:16:42.142Z,67.38
2023-01-30T21:19:13.883Z,76.75
2023-01-30T21:21:51.301Z,68.40
2023-01-30T21:24:28.243Z,71.10
2023-01-30T21:26:56.290Z,71.45
2023-01-30T21:29:27.065Z,71.05
2023-01-30T21:31:56.375Z,71.65
2023-01-30T21:34:24.190Z,71.32
2023-01-30T21:37:10.267Z,80.57
2023-01-30T21:39:56.106Z,76.75
2023-01-30T21:42:42.045Z,85.40
2023-01-30T21:45:09.479Z,74.28
2023-01-30T21:47:37.123Z,72.80
2023-01-30T21:50:04.921Z,78.05
2023-01-30T21:52:33.317Z,67.10
2023-01-30T21:55:00.867Z,73.57
2023-01-30T21:57:28.253Z,67.47
2023-01-30T21:59:55.731Z,71.00
2023-01-30T22:02:23.115Z,62.70
2023-01-30T22:04:50.385Z,65.85
2023-01-30T22:07:17.903Z,65.25
2023-01-30T22:09:45.297Z,68.05
2023-01-30T22:12:12.710Z,70.72
2023-01-30T22:14:40.318Z,69.32
2023-01-30T22:17:07.736Z,61.70
2023-01-30T22:19:38.421Z,67.78
2023-01-30T22:22:05.924Z,68.15
2023-01-30T22:24:33.239Z,65.28
2023-01-30T22:27:00.606Z,66.72
2023-01-30T22:29:29.164Z,66.68
2023-01-30T22:31:56.623Z,63.80
2023-01-30T22:34:24.003Z,68.72
2023-01-30T22:36:51.870Z,65.90
2023-01-30T22:39:19.221Z,58.45
2023-01-30T22:41:46.596Z,65.25
2023-01-30T22:44:13.904Z,66.82
2023-01-30T22:46:41.680Z,65.72
2023-01-30T22:49:09.955Z,66.20
2023-01-30T22:51:40.645Z,62.85
2023-01-30T22:54:11.280Z,63.57
2023-01-30T22:56:41.225Z,64.95
2023-01-30T22:59:09.561Z,64.72
2023-01-30T23:01:42.201Z,57.45
2023-01-30T23:04:18.037Z,59.22
2023-01-30T23:06:45.731Z,62.15
2023-01-30T23:09:19.225Z,62.63
2023-01-30T23:12:09.959Z,58.10
2023-01-30T23:14:38.318Z,61.22
2023-01-30T23:17:25.907Z,55.80
2023-01-30T23:19:54.620Z,58.20
2023-01-30T23:22:22.606Z,60.22
2023-01-30T23:24:51.301Z,56.50
2023-01-30T23:27:20.632Z,58.83
2023-01-30T23:29:47.935Z,56.28
2023-01-30T23:32:19.095Z,59.00
2023-01-30T23:34:47.737Z,63.22
2023-01-30T23:37:15.954Z,57.78
2023-01-30T23:39:43.533Z,60.00
2023-01-30T23:42:10.951Z,62.67
2023-01-30T23:44:38.728Z,63.35
2023-01-30T23:47:06.156Z,62.92
2023-01-30T23:49:33.476Z,57.42
2023-01-30T23:52:00.821Z,62.53
2023-01-30T23:54:28.153Z,58.58
2023-01-30T23:56:55.567Z,60.90
2023-01-30T23:59:22.875Z,62.33
